Mercer, Missouri
Current Conditions -  °F | °C
As of 12:53 AM on Thursday 18 Dec 2014 (Local Time) from KLWD Reporting Station
Overcast Overcast  
Wind Chill: 21°   Ceiling: 8000
Heat Index: 26°   Visibility: 10mi
Dew Point: 18°   Wind: 5mph
Humidity: 71%   Direction: 70°ENE
Pressure: 30.26"   Gusts: NA
Location:  40.51°N, 93.53°W
Report Text: KLWD 180653Z AUTO 07004KT 10SM OVC080 M03/M08 A3026 RMK AO2 SLP262 T10331078
Loading
Personal Weather Stations






























Interactive Weather Map New forecast layout! Learn more

10-Day Weather Forecast

Advertisements
Track Severe Weather on mobile